Southern Sonoma County Latest

20 Stations

15 Minute Data
as of 9/2/26 6:33 PM PDT
Station Date Time Temp (°F) RH (%) Dew Pt (°F) Wind Spd (mph) Wind Dir (°) Wind Gust (mph) Latest Rain (In) Daily Rain (In) Daily Min Temp (°F) Daily Max Temp (°F)
Upper Rincon Valley 9/2/26 1815 67.3   4.4 61   4 53.3   2.4 1.7   1.2 S | 191 5.7   3.2 0.00 0.00 55.9   2.5 72.0   0.3
Lower Bennett Valley 9/2/26 1830 67.3   3.4 65   6 55.1   1.0 6.4   0.2 WNW | 287 10.0   4.0 0.00 0.06 52.5   2.3 73.5   0.2
Kenwood (Wildwood) 9/2/26 1830 67.6   1.4 57   2 52.0   0.5 4.5   2.2 NNW | 338 8.4   4.6 0.00 0.06 52.8   3.1 74.8   0.2
Crane Creek (Ranch 62) 9/2/26 1830 67.7   0.6 63   0 54.6   0.5 0.8   0.8 WSW | 256 3.9   4.2 0.00 0.01 57.2   2.5 77.3   2.1
Rohnert Park-West (Stony Point) 9/2/26 1830 66.4   1.7 75   5 58.2   0.1 3.6   2.8 WSW | 237 8.8   6.4 0.00 0.04 54.7   1.4 72.4   0.8
Rice-Spivak Vineyard 9/2/26 1830 66.2   1.9 - - - - - - - 51.4   5.2 73.5   1.0
Cartograph Wines Base 9/2/26 1830 64.5   0.9 81   2 58.6   0.2 7.3   0.0 SSW | 200 12.9   1.5 0.00 0.08 55.4   0.6 71.2   0.0
Cartograph Wines Remote 9/2/26 1830 67.6   2.6 - - - - - - - 54.6   1.8 70.8   3.3
Penngrove (Asellus) 9/2/26 1830 67.4   1.6 63   3 54.5   0.2 4.3   2.1 SW | 228 10.3   4.0 0.00 0.00 54.2   2.7 74.8   0.3
Sonoma Valley (Bedrock) 9/2/26 1830 69.9   3.8 50   0 50.4   3.6 - - - 0.00 0.09 52.6   1.8 74.3   1.1
Sonoma-West (Arnold) 9/2/26 1830 70.7   3.1 52   4 52.0   0.8 5.1   1.8 WSW | 252 12.1   0.9 0.00 0.06 52.8   1.9 77.0   0.8
Sonoma Valley HS 9/2/26 1830 70.6   2.6 57   4 54.8   0.8 3.6   0.6 WSW | 240 10.4   2.1 0.00 0.01 54.5   0.8 76.5   0.8
Sonoma East (Bundschu01) 9/2/26 1830 70.7   2.3 49   3 50.9   0.4 6.9   0.3 W | 276 14.5   0.4 0.00 0.05 51.5   1.7 76.1   0.1
Sonoma-SE (Napoli) 9/2/26 1830 71.0   2.5 49   3 51.0   0.7 7.5   0.4 W | 281 12.5   1.7 0.00 0.00 51.0   5.8 79.1   1.9
Schellville (Sasaki) 2/7/26 1900 53.4   2.2 88   10 49.9   1.0 3.3   1.8 SW | 225 5.8   4.0 0.00 0.00 47.0   0.8 62.8   8.4
Petaluma (Ranch 10) 9/2/26 1830 69.0   1.5 55   0 52.1   1.2 5.7   1.1 W | 259 11.0   3.6 0.00 0.03 51.7   6.6 76.2   1.5
Carneros (Ranch 71) 9/2/26 1830 69.6   2.9 53   2 51.7   1.5 9.5   2.4 W | 274 16.6   1.5 0.00 0.01 56.9   0.2 74.9   0.4
Ricci Vineyards (Carneros) 9/2/26 1830 70.9   2.3 50   3 51.5   0.7 8.8   1.0 W | 280 13.5   0.1 0.00 0.02 52.0   6.0 77.1   0.7
Carneros Upper (Ranch 81) 9/2/26 1830 69.6   3.2 53   2 51.5   1.9 14.8   1.2 W | 266 20.8   1.8 - - 57.4   0.5 75.9   2.1
Carneros Lower (Ranch 81) 9/2/26 1830 69.8   1.2 55   1 52.9   1.7 1.3   0.4 WNW | 287 7.9   0.0 0.00 0.00 52.0   5.1 80.3   1.7
Max     71.0 81 58.6 14.8 - 20.8 0.00 0.09 57.4 80.3
Avg     68.6 58 53.2 5.7 - 11.2 0.00 - - -
Min     64.5 49 50.4 0.8 - 3.9 0.00 0.00 51.0 70.8